Terminal Aerodrome Forecast
Issued by NWS Paducah, KY

Home | Current Version | Previous Version | Text Only | Print | Product List | Glossary On
Versions: 1 2 3 4 5 6 7 8 9 10 11 12 13 14 15 16 17 18 19 20 21 22 23 24 25 26 27 28
000
FTUS43 KPAH 161013 AAB
TAFEVV
TAF AMD
KEVV 161013Z 1610/1706 VRB03KT 3SM BR VCSH OVC004
      TEMPO 1610/1612 5SM -TSRA BR SCT004 BKN015CB
     FM161200 VRB03KT 4SM BR SCT015 OVC060
      TEMPO 1612/1615 2SM BR BKN015
     FM161700 19007KT P6SM SCT008 OVC025
     FM170100 20003KT P6SM OVC050=

USA.gov is the U.S. government's official web portal to all federal, state and local government web resources and services.